메인 페이지
METAR-TAF:

METAR-TAF

공항 :

산후안, 푸에르토리코, 미국

위도: 18-27N, 경도: 066-00W, 고도: 3m

현재 날씨관측

예보는 56분 전, 01:56시(UTC)에 발표되었습니다.
남동3kt
온도 26°C
습도 74%
기압 1018 hPa
시정: 16.1km
고도 2800ft 상공 구름 조금

METAR: TJSJ 130156Z 14003KT 10SM FEW028 26/21 A3006 RMK AO2 SLP179 T02560211

시각: 22:52 (02:52 UTC)

예보

예보는 3 시간 12분 전, 23:40시(UTC)에 발표되었습니다.
예보 대상 시간: 13일 00시부터 13일 24시까지 (UTC)
여러 방향의 바람 5kt
시정: 10km
고도 2500ft 상공 구름 조금
고도 7000ft 상공 구름 보통
약한소나기
13일 1400시부터 (UTC)
14kt, 순간 최대 풍속 23kt
시정: 10km
고도 2500ft 상공 구름 조금
13일 2300시부터 (UTC)
10kt
시정: 10km
고도 3000ft 상공 구름 보통

TAF: TJSJ 122340Z 1300/1324 VRB05KT P6SM -SHRA FEW025 SCT070 FM131400 08014G23KT P6SM FEW025 FM132300 08010KT P6SM SCT030

4,000개 이상의 공항 관측 자료 및 예보 (METAR 및 TAF 보고).

지도상에서 검색 가능한 기상관측소가 노란 점과 빨간 점으로 표시되어 있습니다.

기상관측소 명을 보려면 표시 위로 마우스를 이동하세요.

날씨 관측과 예보를 보려면 클릭하세요.

지도 변경 : 확대하려면 엑스 표시가 있는 녹색 버튼, 축소하려면 빼기 표시가 있는 녹색 버튼, 다음 페이지의 지도를 보려면 녹색 화살표를 클릭하세요.


METAR-TAF: